map of SKD home
SKD - Airport
Location
City:  Samarkand, Samarqand, Uzbekistan
Near (Alt.):Samarqand
Name:Samarkand International Airport
ICAO:UTSS
IATA:SKD

Details
Type:Airport (Aerodrome, Airfield)
Use:Public/Civil, International (customs port of entry)
Latitude:3942'02"N (39.700547)
Longitude:6659'02"E (66.983829)
Elevation:2224 ft (678 m)
Variation:5.12E (WMM2015v2 magnetic declination)
0.06 annual change
Runways:1
Longest:10170 × 161 ft (3100 × 49 m), paved

Time
Time Zone:UTC+5
Local Time:

Weather
METAR:UTSS 041400Z 09016KT 6000 NSC 07/00 Q1017 R09/CLRD70 NOSIG
TAF:UTSS 041100Z 0412/0512 12010G20KT 6000 BKN040CB BKN100
TEMPO 0412/0418 27020G30KT 3500 -SHRA BR BKN006 OVC033CB
TEMPO 0418/0424 30014G24KT 1500 SHSNRA BR BKN004 OVC015CB

Related Locations
Nearby:
Farthest:IPC: 11542 mi / 18576 km
Easter Island (Isla de Pascua, Rapa Nui) [Mataveri Intl], VS, CL

Find:

   beyond  
but within

Other Information
Maps:
NOTAMs:
Links:
Sources:

  
  • flag of Uzbekistan
  

Sectional Chart

Flight Planning
at skyvector.com

Satellite Image

Google Maps Satellite view

 

Copyright © 2004-2019 Karl L. Swartz. All rights reserved.
The Great Circle Mapper name and logo are trademarks of the Great Circle Mapper.
All other trademarks mentioned herein belong to their respective owners.
Please see credits for attibutions and further copyright information.

  Follow gcmap on Facebook Follow gcmap on Twitter GCmap on LinkedIn

hCard Microformat

Geo Microformat